Airport View

Enter AWOS ICAO identifier for current METAR.

ex. KFNL

KELN 212253Z AUTO 19006KT 10SM CLR 25/06 A2998 RMK AO2 SLP142 T02500061

21 Sep 2019 23:23

Frequency: 118.375

Phone: 509-925-2040

Other Area AWOS: KEAT - KYKM - KSMP - KEPH

TAF KEAT 211720Z 2118/2218 24005KT P6SM SKC FM212000 15006KT P6SM SKC FM220200 30008KT P6SM SCT200